Time;durP1;ratioP1;P1;durP2;ratioP2;P2;SDS_P1;SDS_P2;PMS_P1;PMS_P2;Temp;Humidity;BMP_temperature;BMP_pressure;BME280_temperature;BME280_humidity;BME280_pressure;Samples;Min_cycle;Max_cycle;Signal;HPM_P1;HPM_P2
2023/01/05 22:02:56;;;;;;;19.30;3.88;;;;;;;;;;1972154;27;20473;-64
2023/01/05 22:04:38;;;;;;;24.13;4.88;;;;;;;;;;2097862;28;20785;-64
2023/01/05 22:05:39;;;;;;;21.17;5.18;;;;;;;;;;2097702;28;20039;-63
2023/01/05 22:06:39;;;;;;;29.20;6.20;;;;;;;;;;2097652;28;20368;-63
2023/01/05 22:07:39;;;;;;;18.88;5.25;;;;;;;;;;2097815;28;20261;-63
2023/01/05 22:08:39;;;;;;;30.33;5.82;;;;;;;;;;2097604;28;20033;-63
2023/01/05 22:09:40;;;;;;;25.73;5.80;;;;;;;;;;2097612;28;20021;-63
2023/01/05 22:10:40;;;;;;;25.30;5.80;;;;;;;;;;2097696;28;20024;-63
2023/01/05 22:11:40;;;;;;;26.10;6.77;;;;;;;;;;2096914;28;20024;-63
2023/01/05 22:12:40;;;;;;;24.38;6.97;;;;;;;;;;2097299;28;20249;-63
2023/01/05 22:13:40;;;;;;;18.83;6.37;;;;;;;;;;2097579;28;20422;-63
2023/01/05 22:14:41;;;;;;;25.80;7.30;;;;;;;;;;2097750;28;20237;-63
2023/01/05 22:15:43;;;;;;;25.13;6.30;;;;;;;;;;2097587;28;20456;-63
2023/01/05 22:16:43;;;;;;;28.15;7.05;;;;;;;;;;2097774;28;20021;-63
2023/01/05 22:17:43;;;;;;;26.83;7.07;;;;;;;;;;2097608;28;20431;-63
2023/01/05 22:18:43;;;;;;;34.40;7.53;;;;;;;;;;2097736;28;20234;-63
2023/01/05 22:19:43;;;;;;;24.60;7.32;;;;;;;;;;2097577;28;20242;-63
2023/01/05 22:20:43;;;;;;;25.90;8.45;;;;;;;;;;2097615;28;20009;-63
2023/01/05 22:21:44;;;;;;;22.67;8.05;;;;;;;;;;2097592;28;20052;-63
2023/01/05 22:22:44;;;;;;;31.55;7.90;;;;;;;;;;2097594;28;20371;-63
2023/01/05 22:23:44;;;;;;;24.33;8.00;;;;;;;;;;2097480;28;20020;-63
2023/01/05 22:24:44;;;;;;;32.33;8.73;;;;;;;;;;2097689;28;20238;-63
2023/01/05 22:25:44;;;;;;;27.45;8.43;;;;;;;;;;2097504;28;20411;-63
2023/01/05 22:26:44;;;;;;;28.80;9.00;;;;;;;;;;2097683;28;20025;-63
2023/01/05 22:27:45;;;;;;;24.95;8.48;;;;;;;;;;2097499;28;20230;-63
2023/01/05 22:28:46;;;;;;;25.90;9.57;;;;;;;;;;2097592;28;20067;-63
2023/01/05 22:29:46;;;;;;;28.13;10.02;;;;;;;;;;2097487;28;20025;-63
2023/01/05 22:30:46;;;;;;;39.22;10.40;;;;;;;;;;2097519;28;20032;-62
2023/01/05 22:31:49;;;;;;;26.00;8.50;;;;;;;;;;2097415;28;20021;-63
2023/01/05 22:32:49;;;;;;;32.10;10.50;;;;;;;;;;2097547;28;20332;-63
2023/01/05 22:33:51;;;;;;;33.38;9.82;;;;;;;;;;2097404;28;20079;-63
2023/01/05 22:34:51;;;;;;;27.63;9.27;;;;;;;;;;2096835;28;20076;-63
2023/01/05 22:35:51;;;;;;;29.50;10.40;;;;;;;;;;2096831;28;20155;-63
2023/01/05 22:36:52;;;;;;;34.13;11.07;;;;;;;;;;2097593;28;20036;-64
2023/01/05 22:37:53;;;;;;;35.83;9.93;;;;;;;;;;2096695;28;20253;-63
2023/01/05 22:38:54;;;;;;;43.75;11.38;;;;;;;;;;2096965;28;20104;-63
2023/01/05 22:39:54;;;;;;;31.35;10.45;;;;;;;;;;2097548;28;20016;-63
2023/01/05 22:40:58;;;;;;;28.27;10.88;;;;;;;;;;2097633;28;20082;-63
2023/01/05 22:41:58;;;;;;;33.88;11.25;;;;;;;;;;2096600;28;20028;-63
2023/01/05 22:42:58;;;;;;;33.90;11.23;;;;;;;;;;2091570;28;20405;-63
2023/01/05 22:44:01;;;;;;;35.50;11.25;;;;;;;;;;2097281;28;20075;-63
2023/01/05 22:45:01;;;;;;;29.63;11.00;;;;;;;;;;2089095;28;20030;-63
2023/01/05 22:46:02;;;;;;;35.05;11.77;;;;;;;;;;2089156;28;20488;-63
2023/01/05 22:47:02;;;;;;;30.63;11.45;;;;;;;;;;2089057;28;20032;-63
2023/01/05 22:48:03;;;;;;;31.67;11.70;;;;;;;;;;2089023;28;20024;-63
2023/01/05 22:49:03;;;;;;;28.73;11.02;;;;;;;;;;2088981;28;20113;-62
2023/01/05 22:50:04;;;;;;;22.83;11.27;;;;;;;;;;2089145;28;20468;-63
2023/01/05 22:51:11;;;;;;;34.55;12.13;;;;;;;;;;2088973;28;20055;-62
2023/01/05 22:52:11;;;;;;;33.38;12.05;;;;;;;;;;2089110;28;20100;-63
2023/01/05 22:53:12;;;;;;;34.53;11.77;;;;;;;;;;2088938;28;20040;-63
2023/01/05 22:54:12;;;;;;;26.33;11.73;;;;;;;;;;2089078;28;20316;-63
2023/01/05 22:55:12;;;;;;;25.77;11.37;;;;;;;;;;2089081;28;20453;-63
2023/01/05 22:56:13;;;;;;;23.77;10.98;;;;;;;;;;2089097;28;20614;-62
2023/01/05 22:57:13;;;;;;;28.80;12.35;;;;;;;;;;2088853;28;20495;-62
2023/01/05 22:58:13;;;;;;;33.03;12.67;;;;;;;;;;2089053;28;20025;-63
2023/01/05 22:59:14;;;;;;;22.90;11.77;;;;;;;;;;2090614;28;20742;-63
2023/01/05 23:00:14;;;;;;;31.73;12.88;;;;;;;;;;2097340;28;20074;-63
2023/01/05 23:01:17;;;;;;;29.80;11.95;;;;;;;;;;2090291;28;20013;-62
2023/01/05 23:02:17;;;;;;;27.42;11.48;;;;;;;;;;2089107;28;20021;-63
2023/01/05 23:03:18;;;;;;;30.23;12.67;;;;;;;;;;2088892;28;20028;-63
2023/01/05 23:04:18;;;;;;;28.83;12.27;;;;;;;;;;2088997;28;20351;-63
2023/01/05 23:05:18;;;;;;;25.88;12.27;;;;;;;;;;2095618;28;20037;-64
2023/01/05 23:06:19;;;;;;;29.48;11.25;;;;;;;;;;2097305;28;20029;-63
2023/01/05 23:07:21;;;;;;;31.73;11.95;;;;;;;;;;2097230;28;20414;-63
2023/01/05 23:08:21;;;;;;;29.10;11.55;;;;;;;;;;2097128;28;20466;-63
2023/01/05 23:09:22;;;;;;;32.50;11.93;;;;;;;;;;2094157;28;20021;-63
2023/01/05 23:10:26;;;;;;;27.27;12.05;;;;;;;;;;2089339;28;20027;-62
2023/01/05 23:11:29;;;;;;;27.55;11.27;;;;;;;;;;2089435;28;20023;-63
2023/01/05 23:12:29;;;;;;;27.65;11.90;;;;;;;;;;2088788;28;20423;-63
2023/01/05 23:13:30;;;;;;;28.20;11.52;;;;;;;;;;2088002;28;20033;-62
2023/01/05 23:14:30;;;;;;;27.98;13.05;;;;;;;;;;2088026;28;20025;-63
2023/01/05 23:15:30;;;;;;;28.80;12.55;;;;;;;;;;2085691;28;20520;-63
2023/01/05 23:16:31;;;;;;;20.88;11.05;;;;;;;;;;2086763;28;20112;-63
2023/01/05 23:17:31;;;;;;;22.90;10.73;;;;;;;;;;2084064;28;20045;-62
2023/01/05 23:18:33;;;;;;;28.23;10.82;;;;;;;;;;2083440;28;20025;-62
2023/01/05 23:19:33;;;;;;;27.48;10.48;;;;;;;;;;2083320;28;20029;-63
2023/01/05 23:20:33;;;;;;;30.53;12.03;;;;;;;;;;2082734;28;20018;-62
2023/01/05 23:21:34;;;;;;;25.03;10.83;;;;;;;;;;2082843;28;20243;-63
2023/01/05 23:22:34;;;;;;;35.60;10.82;;;;;;;;;;2083764;28;20293;-63
2023/01/05 23:23:34;;;;;;;29.20;10.90;;;;;;;;;;2083412;28;20377;-63
2023/01/05 23:24:34;;;;;;;22.50;10.95;;;;;;;;;;2083073;28;20283;-62
2023/01/05 23:25:34;;;;;;;33.97;11.70;;;;;;;;;;2083496;28;20412;-63
2023/01/05 23:26:35;;;;;;;25.00;10.53;;;;;;;;;;2083303;28;20032;-62
2023/01/05 23:27:35;;;;;;;24.30;10.53;;;;;;;;;;2082650;28;20250;-63
2023/01/05 23:28:35;;;;;;;23.70;10.77;;;;;;;;;;2074251;28;20266;-63
2023/01/05 23:29:36;;;;;;;25.33;10.57;;;;;;;;;;2082716;28;20064;-63
2023/01/05 23:30:36;;;;;;;24.73;10.88;;;;;;;;;;2083166;28;20013;-63
2023/01/05 23:31:36;;;;;;;27.75;10.80;;;;;;;;;;2083313;28;20013;-62
2023/01/05 23:32:36;;;;;;;26.75;10.60;;;;;;;;;;2083134;28;20114;-63
2023/01/05 23:33:37;;;;;;;27.05;11.40;;;;;;;;;;2083417;28;20449;-63
2023/01/05 23:34:37;;;;;;;33.65;11.77;;;;;;;;;;2083147;28;20021;-63
2023/01/05 23:35:37;;;;;;;27.33;11.15;;;;;;;;;;2083298;28;20457;-63
2023/01/05 23:36:37;;;;;;;27.20;12.13;;;;;;;;;;2083212;28;20040;-63
2023/01/05 23:37:37;;;;;;;29.77;11.30;;;;;;;;;;2083241;28;20235;-63
2023/01/05 23:38:38;;;;;;;23.50;11.50;;;;;;;;;;2083255;28;20273;-63
2023/01/05 23:39:38;;;;;;;26.15;11.68;;;;;;;;;;2083881;28;20246;-62
2023/01/05 23:40:47;;;;;;;28.20;12.45;;;;;;;;;;2083107;28;20018;-62
2023/01/05 23:41:47;;;;;;;30.30;12.35;;;;;;;;;;2083244;28;20028;-62
2023/01/05 23:42:47;;;;;;;35.60;12.75;;;;;;;;;;2085731;28;20028;-62
2023/01/05 23:43:48;;;;;;;30.90;12.75;;;;;;;;;;2091461;28;20017;-63
2023/01/05 23:44:48;;;;;;;26.63;11.67;;;;;;;;;;2091369;28;20027;-62
2023/01/05 23:45:48;;;;;;;29.43;12.33;;;;;;;;;;2091453;28;20238;-63
2023/01/05 23:46:48;;;;;;;30.38;13.32;;;;;;;;;;2091271;28;20303;-63
2023/01/05 23:47:49;;;;;;;31.67;12.17;;;;;;;;;;2091482;28;20416;-62
2023/01/05 23:48:49;;;;;;;26.75;13.25;;;;;;;;;;2084764;28;20259;-63
2023/01/05 23:49:49;;;;;;;34.03;12.52;;;;;;;;;;2082591;28;20096;-63
2023/01/05 23:50:51;;;;;;;33.83;13.40;;;;;;;;;;2088229;28;20078;-63
2023/01/05 23:51:52;;;;;;;32.05;13.32;;;;;;;;;;2091400;28;20092;-63
2023/01/05 23:52:52;;;;;;;25.93;14.00;;;;;;;;;;2086306;28;20029;-62
2023/01/05 23:53:52;;;;;;;28.97;13.10;;;;;;;;;;2089233;28;20261;-62
2023/01/05 23:54:52;;;;;;;34.30;13.80;;;;;;;;;;2087765;28;20773;-62
2023/01/05 23:56:02;;;;;;;40.07;14.70;;;;;;;;;;2087654;28;20025;-62
2023/01/05 23:57:03;;;;;;;38.53;14.57;;;;;;;;;;2091439;28;20249;-62
2023/01/05 23:58:03;;;;;;;34.35;15.02;;;;;;;;;;2088892;28;20082;-61
2023/01/05 23:59:05;;;;;;;38.63;14.65;;;;;;;;;;2087004;28;20025;-63
